sensor_id;sensor_type;location;lat;lon;timestamp;P1;durP1;ratioP1;P2;durP2;ratioP2
12840;SDS011;6487;48.626;12.486;2022-09-01T00:00:43;9.77;;;8.97;;
12840;SDS011;6487;48.626;12.486;2022-09-01T00:03:14;9.93;;;9.13;;
12840;SDS011;6487;48.626;12.486;2022-09-01T00:05:44;11.07;;;9.97;;
12840;SDS011;6487;48.626;12.486;2022-09-01T00:08:16;10.33;;;9.37;;
12840;SDS011;6487;48.626;12.486;2022-09-01T00:10:46;10.53;;;9.63;;
12840;SDS011;6487;48.626;12.486;2022-09-01T00:13:14;10.83;;;9.70;;
12840;SDS011;6487;48.626;12.486;2022-09-01T00:15:44;11.27;;;10.27;;
12840;SDS011;6487;48.626;12.486;2022-09-01T00:18:12;11.07;;;10.17;;
12840;SDS011;6487;48.626;12.486;2022-09-01T00:20:41;10.87;;;9.87;;
12840;SDS011;6487;48.626;12.486;2022-09-01T00:23:09;11.03;;;9.87;;
12840;SDS011;6487;48.626;12.486;2022-09-01T00:25:38;10.47;;;9.47;;
12840;SDS011;6487;48.626;12.486;2022-09-01T00:28:07;10.00;;;9.00;;
12840;SDS011;6487;48.626;12.486;2022-09-01T00:30:36;10.97;;;10.00;;
12840;SDS011;6487;48.626;12.486;2022-09-01T00:33:04;10.50;;;9.50;;
12840;SDS011;6487;48.626;12.486;2022-09-01T00:35:33;10.77;;;9.67;;
12840;SDS011;6487;48.626;12.486;2022-09-01T00:38:02;10.97;;;10.07;;
12840;SDS011;6487;48.626;12.486;2022-09-01T00:40:31;9.57;;;8.77;;
12840;SDS011;6487;48.626;12.486;2022-09-01T00:42:59;10.27;;;9.33;;
12840;SDS011;6487;48.626;12.486;2022-09-01T00:45:29;9.93;;;9.13;;
12840;SDS011;6487;48.626;12.486;2022-09-01T00:47:58;10.83;;;9.83;;
12840;SDS011;6487;48.626;12.486;2022-09-01T00:50:26;11.37;;;9.57;;
12840;SDS011;6487;48.626;12.486;2022-09-01T00:52:55;9.93;;;9.23;;
12840;SDS011;6487;48.626;12.486;2022-09-01T00:55:24;10.37;;;9.37;;
12840;SDS011;6487;48.626;12.486;2022-09-01T00:57:58;11.77;;;10.10;;
12840;SDS011;6487;48.626;12.486;2022-09-01T01:00:28;10.17;;;9.23;;
12840;SDS011;6487;48.626;12.486;2022-09-01T01:03:07;10.23;;;9.30;;
12840;SDS011;6487;48.626;12.486;2022-09-01T01:05:37;10.03;;;9.17;;
12840;SDS011;6487;48.626;12.486;2022-09-01T01:08:19;9.83;;;8.87;;
12840;SDS011;6487;48.626;12.486;2022-09-01T01:10:56;12.50;;;10.43;;
12840;SDS011;6487;48.626;12.486;2022-09-01T01:13:24;11.07;;;9.63;;
12840;SDS011;6487;48.626;12.486;2022-09-01T01:15:55;10.43;;;9.53;;
12840;SDS011;6487;48.626;12.486;2022-09-01T01:18:24;9.23;;;8.33;;
12840;SDS011;6487;48.626;12.486;2022-09-01T01:20:56;9.80;;;8.90;;
12840;SDS011;6487;48.626;12.486;2022-09-01T01:23:47;12.57;;;9.53;;
12840;SDS011;6487;48.626;12.486;2022-09-01T01:26:24;10.23;;;9.23;;
12840;SDS011;6487;48.626;12.486;2022-09-01T01:28:52;9.43;;;8.60;;
12840;SDS011;6487;48.626;12.486;2022-09-01T01:31:21;9.93;;;9.13;;
12840;SDS011;6487;48.626;12.486;2022-09-01T01:33:51;10.17;;;9.27;;
12840;SDS011;6487;48.626;12.486;2022-09-01T01:36:25;8.93;;;8.27;;
12840;SDS011;6487;48.626;12.486;2022-09-01T01:38:58;8.93;;;8.20;;
12840;SDS011;6487;48.626;12.486;2022-09-01T01:41:31;8.93;;;8.20;;
12840;SDS011;6487;48.626;12.486;2022-09-01T01:44:06;10.10;;;8.03;;
12840;SDS011;6487;48.626;12.486;2022-09-01T01:46:35;9.93;;;9.13;;
12840;SDS011;6487;48.626;12.486;2022-09-01T01:49:08;8.10;;;7.50;;
12840;SDS011;6487;48.626;12.486;2022-09-01T01:51:38;9.40;;;8.40;;
12840;SDS011;6487;48.626;12.486;2022-09-01T01:54:07;9.63;;;8.67;;
12840;SDS011;6487;48.626;12.486;2022-09-01T01:56:37;8.50;;;7.63;;
12840;SDS011;6487;48.626;12.486;2022-09-01T01:59:07;8.57;;;7.87;;
12840;SDS011;6487;48.626;12.486;2022-09-01T02:01:40;8.63;;;7.90;;
12840;SDS011;6487;48.626;12.486;2022-09-01T02:04:17;8.70;;;8.00;;
12840;SDS011;6487;48.626;12.486;2022-09-01T02:06:47;8.97;;;8.07;;
12840;SDS011;6487;48.626;12.486;2022-09-01T02:09:18;10.57;;;8.03;;
12840;SDS011;6487;48.626;12.486;2022-09-01T02:11:49;8.70;;;7.90;;
12840;SDS011;6487;48.626;12.486;2022-09-01T02:14:22;7.80;;;7.10;;
12840;SDS011;6487;48.626;12.486;2022-09-01T02:16:51;8.20;;;7.50;;
12840;SDS011;6487;48.626;12.486;2022-09-01T02:19:21;8.10;;;7.40;;
12840;SDS011;6487;48.626;12.486;2022-09-01T02:21:49;8.07;;;7.27;;
12840;SDS011;6487;48.626;12.486;2022-09-01T02:24:21;8.83;;;7.90;;
12840;SDS011;6487;48.626;12.486;2022-09-01T02:26:53;8.83;;;7.73;;
12840;SDS011;6487;48.626;12.486;2022-09-01T02:29:24;8.43;;;7.63;;
12840;SDS011;6487;48.626;12.486;2022-09-01T02:31:54;8.90;;;8.17;;
12840;SDS011;6487;48.626;12.486;2022-09-01T02:34:24;7.97;;;7.30;;
12840;SDS011;6487;48.626;12.486;2022-09-01T02:36:54;7.80;;;7.10;;
12840;SDS011;6487;48.626;12.486;2022-09-01T02:39:25;7.30;;;6.70;;
12840;SDS011;6487;48.626;12.486;2022-09-01T02:41:59;8.67;;;7.80;;
12840;SDS011;6487;48.626;12.486;2022-09-01T02:44:28;7.60;;;6.90;;
12840;SDS011;6487;48.626;12.486;2022-09-01T02:46:58;7.77;;;7.10;;
12840;SDS011;6487;48.626;12.486;2022-09-01T02:49:27;8.03;;;7.17;;
12840;SDS011;6487;48.626;12.486;2022-09-01T02:51:56;7.47;;;6.87;;
12840;SDS011;6487;48.626;12.486;2022-09-01T02:54:27;7.37;;;6.67;;
12840;SDS011;6487;48.626;12.486;2022-09-01T02:56:58;8.43;;;7.60;;
12840;SDS011;6487;48.626;12.486;2022-09-01T02:59:29;9.30;;;8.50;;
12840;SDS011;6487;48.626;12.486;2022-09-01T03:02:00;8.60;;;7.80;;
12840;SDS011;6487;48.626;12.486;2022-09-01T03:04:28;7.90;;;7.10;;
12840;SDS011;6487;48.626;12.486;2022-09-01T03:07:00;8.27;;;7.50;;
12840;SDS011;6487;48.626;12.486;2022-09-01T03:09:29;8.47;;;7.77;;
12840;SDS011;6487;48.626;12.486;2022-09-01T03:12:02;7.97;;;7.23;;
12840;SDS011;6487;48.626;12.486;2022-09-01T03:14:32;8.80;;;8.00;;
12840;SDS011;6487;48.626;12.486;2022-09-01T03:17:00;8.70;;;7.97;;
12840;SDS011;6487;48.626;12.486;2022-09-01T03:19:28;8.30;;;7.50;;
12840;SDS011;6487;48.626;12.486;2022-09-01T03:22:05;11.07;;;8.10;;
12840;SDS011;6487;48.626;12.486;2022-09-01T03:24:34;7.80;;;7.10;;
12840;SDS011;6487;48.626;12.486;2022-09-01T03:27:03;8.80;;;8.00;;
12840;SDS011;6487;48.626;12.486;2022-09-01T03:29:32;7.97;;;7.27;;
12840;SDS011;6487;48.626;12.486;2022-09-01T03:32:02;8.07;;;7.37;;
12840;SDS011;6487;48.626;12.486;2022-09-01T03:34:31;8.80;;;8.10;;
12840;SDS011;6487;48.626;12.486;2022-09-01T03:37:02;8.47;;;7.57;;
12840;SDS011;6487;48.626;12.486;2022-09-01T03:39:36;9.10;;;8.30;;
12840;SDS011;6487;48.626;12.486;2022-09-01T03:42:06;9.37;;;7.90;;
12840;SDS011;6487;48.626;12.486;2022-09-01T03:44:37;10.27;;;7.83;;
12840;SDS011;6487;48.626;12.486;2022-09-01T03:47:07;8.37;;;7.57;;
12840;SDS011;6487;48.626;12.486;2022-09-01T03:49:40;8.67;;;7.83;;
12840;SDS011;6487;48.626;12.486;2022-09-01T03:52:10;9.47;;;8.13;;
12840;SDS011;6487;48.626;12.486;2022-09-01T03:54:40;8.40;;;7.70;;
12840;SDS011;6487;48.626;12.486;2022-09-01T03:57:10;9.17;;;7.83;;
12840;SDS011;6487;48.626;12.486;2022-09-01T03:59:39;8.80;;;7.10;;
12840;SDS011;6487;48.626;12.486;2022-09-01T04:02:10;7.87;;;7.17;;
12840;SDS011;6487;48.626;12.486;2022-09-01T04:04:40;8.83;;;8.03;;
12840;SDS011;6487;48.626;12.486;2022-09-01T04:07:08;7.53;;;6.77;;
12840;SDS011;6487;48.626;12.486;2022-09-01T04:09:44;8.20;;;7.50;;
12840;SDS011;6487;48.626;12.486;2022-09-01T04:12:14;7.73;;;7.03;;
12840;SDS011;6487;48.626;12.486;2022-09-01T04:14:42;8.30;;;7.60;;
12840;SDS011;6487;48.626;12.486;2022-09-01T04:17:13;8.57;;;7.87;;
12840;SDS011;6487;48.626;12.486;2022-09-01T04:20:00;9.23;;;7.97;;
12840;SDS011;6487;48.626;12.486;2022-09-01T04:22:34;8.60;;;7.70;;
12840;SDS011;6487;48.626;12.486;2022-09-01T04:25:03;8.20;;;7.50;;
12840;SDS011;6487;48.626;12.486;2022-09-01T04:27:35;8.30;;;7.53;;
12840;SDS011;6487;48.626;12.486;2022-09-01T04:30:06;8.37;;;7.57;;
12840;SDS011;6487;48.626;12.486;2022-09-01T04:32:37;9.97;;;7.27;;
12840;SDS011;6487;48.626;12.486;2022-09-01T04:35:07;8.10;;;7.50;;
12840;SDS011;6487;48.626;12.486;2022-09-01T04:37:42;7.93;;;7.20;;
12840;SDS011;6487;48.626;12.486;2022-09-01T04:40:12;9.63;;;7.37;;
12840;SDS011;6487;48.626;12.486;2022-09-01T04:42:45;8.20;;;7.50;;
12840;SDS011;6487;48.626;12.486;2022-09-01T04:45:13;8.60;;;7.90;;
12840;SDS011;6487;48.626;12.486;2022-09-01T04:47:46;8.30;;;7.50;;
12840;SDS011;6487;48.626;12.486;2022-09-01T04:50:14;8.27;;;6.80;;
12840;SDS011;6487;48.626;12.486;2022-09-01T04:52:43;7.47;;;6.87;;
12840;SDS011;6487;48.626;12.486;2022-09-01T04:55:13;7.30;;;6.70;;
12840;SDS011;6487;48.626;12.486;2022-09-01T04:57:45;10.03;;;7.43;;
12840;SDS011;6487;48.626;12.486;2022-09-01T05:00:16;8.17;;;7.47;;
12840;SDS011;6487;48.626;12.486;2022-09-01T05:02:51;8.03;;;7.20;;
12840;SDS011;6487;48.626;12.486;2022-09-01T05:05:22;7.70;;;6.97;;
12840;SDS011;6487;48.626;12.486;2022-09-01T05:07:52;8.20;;;7.40;;
12840;SDS011;6487;48.626;12.486;2022-09-01T05:10:21;8.73;;;7.87;;
12840;SDS011;6487;48.626;12.486;2022-09-01T05:12:56;7.83;;;7.03;;
12840;SDS011;6487;48.626;12.486;2022-09-01T05:15:25;8.20;;;7.40;;
12840;SDS011;6487;48.626;12.486;2022-09-01T05:17:56;8.60;;;7.77;;
12840;SDS011;6487;48.626;12.486;2022-09-01T05:20:27;7.47;;;6.77;;
12840;SDS011;6487;48.626;12.486;2022-09-01T05:22:58;9.00;;;8.10;;
12840;SDS011;6487;48.626;12.486;2022-09-01T05:25:27;8.90;;;8.00;;
12840;SDS011;6487;48.626;12.486;2022-09-01T05:27:56;9.10;;;8.17;;
12840;SDS011;6487;48.626;12.486;2022-09-01T05:30:25;7.67;;;7.07;;
12840;SDS011;6487;48.626;12.486;2022-09-01T05:32:54;8.53;;;7.70;;
12840;SDS011;6487;48.626;12.486;2022-09-01T05:35:22;9.37;;;8.37;;
12840;SDS011;6487;48.626;12.486;2022-09-01T05:37:58;8.10;;;7.40;;
12840;SDS011;6487;48.626;12.486;2022-09-01T05:40:27;9.07;;;8.13;;
12840;SDS011;6487;48.626;12.486;2022-09-01T05:42:58;8.80;;;8.00;;
12840;SDS011;6487;48.626;12.486;2022-09-01T05:45:27;8.33;;;7.50;;
12840;SDS011;6487;48.626;12.486;2022-09-01T05:48:17;8.17;;;7.47;;
12840;SDS011;6487;48.626;12.486;2022-09-01T05:50:48;8.43;;;7.73;;
12840;SDS011;6487;48.626;12.486;2022-09-01T05:53:21;8.77;;;7.97;;
12840;SDS011;6487;48.626;12.486;2022-09-01T05:55:52;8.07;;;7.37;;
12840;SDS011;6487;48.626;12.486;2022-09-01T05:58:24;9.07;;;8.13;;
12840;SDS011;6487;48.626;12.486;2022-09-01T06:01:15;8.37;;;6.57;;
12840;SDS011;6487;48.626;12.486;2022-09-01T06:03:47;8.63;;;7.83;;
12840;SDS011;6487;48.626;12.486;2022-09-01T06:06:20;8.50;;;7.60;;
12840;SDS011;6487;48.626;12.486;2022-09-01T06:08:50;7.70;;;7.07;;
12840;SDS011;6487;48.626;12.486;2022-09-01T06:11:24;8.17;;;7.57;;
12840;SDS011;6487;48.626;12.486;2022-09-01T06:13:59;8.00;;;7.30;;
12840;SDS011;6487;48.626;12.486;2022-09-01T06:16:28;9.47;;;7.17;;
12840;SDS011;6487;48.626;12.486;2022-09-01T06:18:57;7.87;;;7.27;;
12840;SDS011;6487;48.626;12.486;2022-09-01T06:21:25;7.83;;;6.97;;
12840;SDS011;6487;48.626;12.486;2022-09-01T06:23:55;7.53;;;6.83;;
12840;SDS011;6487;48.626;12.486;2022-09-01T06:26:25;7.00;;;6.30;;
12840;SDS011;6487;48.626;12.486;2022-09-01T06:28:57;7.23;;;6.73;;
12840;SDS011;6487;48.626;12.486;2022-09-01T06:31:30;7.50;;;6.90;;
12840;SDS011;6487;48.626;12.486;2022-09-01T06:34:05;7.37;;;6.83;;
12840;SDS011;6487;48.626;12.486;2022-09-01T06:36:43;8.07;;;7.47;;
12840;SDS011;6487;48.626;12.486;2022-09-01T06:39:14;7.73;;;7.13;;
12840;SDS011;6487;48.626;12.486;2022-09-01T06:41:46;7.43;;;6.73;;
12840;SDS011;6487;48.626;12.486;2022-09-01T06:44:19;7.30;;;6.63;;
12840;SDS011;6487;48.626;12.486;2022-09-01T06:46:48;7.27;;;6.67;;
12840;SDS011;6487;48.626;12.486;2022-09-01T06:49:18;10.57;;;6.87;;
12840;SDS011;6487;48.626;12.486;2022-09-01T06:51:48;7.00;;;6.37;;
12840;SDS011;6487;48.626;12.486;2022-09-01T06:54:18;6.90;;;6.30;;
12840;SDS011;6487;48.626;12.486;2022-09-01T06:56:46;6.73;;;6.13;;
12840;SDS011;6487;48.626;12.486;2022-09-01T06:59:18;6.33;;;5.77;;
12840;SDS011;6487;48.626;12.486;2022-09-01T07:01:48;6.23;;;5.73;;
12840;SDS011;6487;48.626;12.486;2022-09-01T07:04:27;6.30;;;5.53;;
12840;SDS011;6487;48.626;12.486;2022-09-01T07:06:57;5.90;;;5.30;;
12840;SDS011;6487;48.626;12.486;2022-09-01T07:09:48;6.43;;;5.23;;
12840;SDS011;6487;48.626;12.486;2022-09-01T07:12:37;5.50;;;5.10;;
12840;SDS011;6487;48.626;12.486;2022-09-01T07:15:28;4.93;;;4.63;;
12840;SDS011;6487;48.626;12.486;2022-09-01T07:18:16;5.10;;;4.70;;
12840;SDS011;6487;48.626;12.486;2022-09-01T07:20:47;5.47;;;4.97;;
12840;SDS011;6487;48.626;12.486;2022-09-01T07:23:36;5.20;;;4.80;;
12840;SDS011;6487;48.626;12.486;2022-09-01T07:26:25;4.60;;;4.20;;
12840;SDS011;6487;48.626;12.486;2022-09-01T07:28:54;5.97;;;5.27;;
12840;SDS011;6487;48.626;12.486;2022-09-01T07:31:28;5.43;;;4.93;;
12840;SDS011;6487;48.626;12.486;2022-09-01T07:34:17;5.00;;;4.60;;
12840;SDS011;6487;48.626;12.486;2022-09-01T07:37:06;5.83;;;5.33;;
12840;SDS011;6487;48.626;12.486;2022-09-01T07:39:56;5.23;;;4.73;;
12840;SDS011;6487;48.626;12.486;2022-09-01T07:42:45;5.10;;;4.70;;
12840;SDS011;6487;48.626;12.486;2022-09-01T07:45:29;5.90;;;4.17;;
12840;SDS011;6487;48.626;12.486;2022-09-01T07:48:00;3.80;;;3.50;;
12840;SDS011;6487;48.626;12.486;2022-09-01T07:50:32;3.63;;;3.40;;
12840;SDS011;6487;48.626;12.486;2022-09-01T07:53:23;3.87;;;3.40;;
12840;SDS011;6487;48.626;12.486;2022-09-01T07:55:58;4.13;;;3.20;;
12840;SDS011;6487;48.626;12.486;2022-09-01T07:58:35;3.07;;;2.87;;
12840;SDS011;6487;48.626;12.486;2022-09-01T08:01:05;5.73;;;3.67;;
12840;SDS011;6487;48.626;12.486;2022-09-01T08:03:36;3.10;;;2.90;;
12840;SDS011;6487;48.626;12.486;2022-09-01T08:06:05;3.50;;;3.20;;
12840;SDS011;6487;48.626;12.486;2022-09-01T08:08:37;4.03;;;3.13;;
12840;SDS011;6487;48.626;12.486;2022-09-01T08:11:06;3.43;;;3.13;;
12840;SDS011;6487;48.626;12.486;2022-09-01T08:13:36;3.50;;;3.20;;
12840;SDS011;6487;48.626;12.486;2022-09-01T08:16:08;3.90;;;3.60;;
12840;SDS011;6487;48.626;12.486;2022-09-01T08:18:46;3.10;;;2.80;;
12840;SDS011;6487;48.626;12.486;2022-09-01T08:21:16;2.90;;;2.63;;
12840;SDS011;6487;48.626;12.486;2022-09-01T08:23:47;2.93;;;2.63;;
12840;SDS011;6487;48.626;12.486;2022-09-01T08:26:17;2.60;;;2.40;;
12840;SDS011;6487;48.626;12.486;2022-09-01T08:28:47;2.40;;;2.27;;
12840;SDS011;6487;48.626;12.486;2022-09-01T08:31:23;4.20;;;2.50;;
12840;SDS011;6487;48.626;12.486;2022-09-01T08:33:57;3.87;;;2.60;;
12840;SDS011;6487;48.626;12.486;2022-09-01T08:36:26;2.70;;;2.50;;
12840;SDS011;6487;48.626;12.486;2022-09-01T08:38:54;2.87;;;2.60;;
12840;SDS011;6487;48.626;12.486;2022-09-01T08:41:25;3.03;;;2.40;;
12840;SDS011;6487;48.626;12.486;2022-09-01T08:44:15;3.50;;;2.50;;
12840;SDS011;6487;48.626;12.486;2022-09-01T08:46:56;3.07;;;2.83;;
12840;SDS011;6487;48.626;12.486;2022-09-01T08:49:29;4.27;;;2.80;;
12840;SDS011;6487;48.626;12.486;2022-09-01T08:52:12;4.90;;;2.20;;
12840;SDS011;6487;48.626;12.486;2022-09-01T08:54:52;2.60;;;2.40;;
12840;SDS011;6487;48.626;12.486;2022-09-01T08:57:28;2.70;;;2.50;;
12840;SDS011;6487;48.626;12.486;2022-09-01T09:00:00;2.60;;;2.40;;
12840;SDS011;6487;48.626;12.486;2022-09-01T09:02:39;2.57;;;2.37;;
12840;SDS011;6487;48.626;12.486;2022-09-01T09:05:29;2.40;;;2.20;;
12840;SDS011;6487;48.626;12.486;2022-09-01T09:08:09;2.50;;;2.30;;
12840;SDS011;6487;48.626;12.486;2022-09-01T09:11:06;2.97;;;2.07;;
12840;SDS011;6487;48.626;12.486;2022-09-01T09:13:53;3.40;;;1.93;;
12840;SDS011;6487;48.626;12.486;2022-09-01T09:16:34;1.93;;;1.83;;
12840;SDS011;6487;48.626;12.486;2022-09-01T09:19:09;3.17;;;2.03;;
12840;SDS011;6487;48.626;12.486;2022-09-01T09:21:45;2.00;;;1.80;;
12840;SDS011;6487;48.626;12.486;2022-09-01T09:24:18;2.47;;;2.07;;
12840;SDS011;6487;48.626;12.486;2022-09-01T09:27:15;2.37;;;2.10;;
12840;SDS011;6487;48.626;12.486;2022-09-01T09:29:47;1.97;;;1.80;;
12840;SDS011;6487;48.626;12.486;2022-09-01T09:32:19;2.50;;;2.00;;
12840;SDS011;6487;48.626;12.486;2022-09-01T09:35:02;2.07;;;1.67;;
12840;SDS011;6487;48.626;12.486;2022-09-01T09:37:50;2.33;;;1.83;;
12840;SDS011;6487;48.626;12.486;2022-09-01T09:40:20;2.27;;;1.90;;
12840;SDS011;6487;48.626;12.486;2022-09-01T09:43:04;1.73;;;1.63;;
12840;SDS011;6487;48.626;12.486;2022-09-01T09:45:34;2.97;;;1.70;;
12840;SDS011;6487;48.626;12.486;2022-09-01T09:48:08;2.07;;;1.67;;
12840;SDS011;6487;48.626;12.486;2022-09-01T09:50:54;1.47;;;1.37;;
12840;SDS011;6487;48.626;12.486;2022-09-01T09:53:26;1.70;;;1.60;;
12840;SDS011;6487;48.626;12.486;2022-09-01T09:55:58;1.83;;;1.73;;
12840;SDS011;6487;48.626;12.486;2022-09-01T09:58:33;3.40;;;1.60;;
12840;SDS011;6487;48.626;12.486;2022-09-01T10:01:06;2.17;;;1.77;;
12840;SDS011;6487;48.626;12.486;2022-09-01T10:03:43;2.20;;;1.70;;
12840;SDS011;6487;48.626;12.486;2022-09-01T10:06:27;1.60;;;1.50;;
12840;SDS011;6487;48.626;12.486;2022-09-01T10:09:02;3.77;;;1.57;;
12840;SDS011;6487;48.626;12.486;2022-09-01T10:11:35;2.07;;;1.87;;
12840;SDS011;6487;48.626;12.486;2022-09-01T10:14:09;2.97;;;1.63;;
12840;SDS011;6487;48.626;12.486;2022-09-01T10:17:07;1.83;;;1.67;;
12840;SDS011;6487;48.626;12.486;2022-09-01T10:19:42;1.97;;;1.63;;
12840;SDS011;6487;48.626;12.486;2022-09-01T10:22:17;2.60;;;1.57;;
12840;SDS011;6487;48.626;12.486;2022-09-01T10:24:48;3.33;;;2.10;;
12840;SDS011;6487;48.626;12.486;2022-09-01T10:27:18;2.30;;;1.73;;
12840;SDS011;6487;48.626;12.486;2022-09-01T10:29:51;1.80;;;1.70;;
12840;SDS011;6487;48.626;12.486;2022-09-01T10:32:45;2.37;;;1.77;;
12840;SDS011;6487;48.626;12.486;2022-09-01T10:35:22;1.73;;;1.63;;
12840;SDS011;6487;48.626;12.486;2022-09-01T10:37:55;3.97;;;1.80;;
12840;SDS011;6487;48.626;12.486;2022-09-01T10:40:40;1.77;;;1.60;;
12840;SDS011;6487;48.626;12.486;2022-09-01T10:43:22;1.57;;;1.47;;
12840;SDS011;6487;48.626;12.486;2022-09-01T10:46:09;2.87;;;1.53;;
12840;SDS011;6487;48.626;12.486;2022-09-01T10:55:42;4.37;;;1.67;;
12840;SDS011;6487;48.626;12.486;2022-09-01T10:58:18;1.80;;;1.50;;
12840;SDS011;6487;48.626;12.486;2022-09-01T11:01:19;5.33;;;1.97;;
12840;SDS011;6487;48.626;12.486;2022-09-01T11:07:42;4.30;;;1.40;;
12840;SDS011;6487;48.626;12.486;2022-09-01T11:10:33;2.00;;;1.40;;
12840;SDS011;6487;48.626;12.486;2022-09-01T11:13:31;1.73;;;1.60;;
12840;SDS011;6487;48.626;12.486;2022-09-01T11:16:28;3.10;;;1.60;;
12840;SDS011;6487;48.626;12.486;2022-09-01T11:19:29;1.33;;;1.23;;
12840;SDS011;6487;48.626;12.486;2022-09-01T11:22:09;1.50;;;1.40;;
12840;SDS011;6487;48.626;12.486;2022-09-01T11:25:04;1.73;;;1.30;;
12840;SDS011;6487;48.626;12.486;2022-09-01T11:28:10;2.30;;;1.47;;
12840;SDS011;6487;48.626;12.486;2022-09-01T11:31:24;1.77;;;1.20;;
12840;SDS011;6487;48.626;12.486;2022-09-01T11:34:01;1.87;;;1.00;;
12840;SDS011;6487;48.626;12.486;2022-09-01T11:39:40;2.50;;;1.40;;
12840;SDS011;6487;48.626;12.486;2022-09-01T11:42:16;2.00;;;1.50;;
12840;SDS011;6487;48.626;12.486;2022-09-01T11:44:50;1.57;;;1.10;;
12840;SDS011;6487;48.626;12.486;2022-09-01T11:47:24;1.60;;;1.30;;
12840;SDS011;6487;48.626;12.486;2022-09-01T11:49:58;2.50;;;1.63;;
12840;SDS011;6487;48.626;12.486;2022-09-01T11:52:30;1.08;;;0.98;;
12840;SDS011;6487;48.626;12.486;2022-09-01T11:55:03;1.63;;;1.33;;
12840;SDS011;6487;48.626;12.486;2022-09-01T11:57:34;1.50;;;1.37;;
12840;SDS011;6487;48.626;12.486;2022-09-01T12:00:06;2.53;;;1.10;;
12840;SDS011;6487;48.626;12.486;2022-09-01T12:02:41;1.53;;;1.33;;
12840;SDS011;6487;48.626;12.486;2022-09-01T12:05:25;3.53;;;1.00;;
12840;SDS011;6487;48.626;12.486;2022-09-01T12:07:59;1.83;;;1.40;;
12840;SDS011;6487;48.626;12.486;2022-09-01T12:10:31;2.23;;;1.50;;
12840;SDS011;6487;48.626;12.486;2022-09-01T12:13:03;1.63;;;1.13;;
12840;SDS011;6487;48.626;12.486;2022-09-01T12:15:34;1.30;;;1.20;;
12840;SDS011;6487;48.626;12.486;2022-09-01T12:18:28;2.13;;;1.27;;
12840;SDS011;6487;48.626;12.486;2022-09-01T12:21:01;2.50;;;2.30;;
12840;SDS011;6487;48.626;12.486;2022-09-01T12:23:35;1.77;;;1.67;;
12840;SDS011;6487;48.626;12.486;2022-09-01T12:26:08;1.67;;;1.20;;
12840;SDS011;6487;48.626;12.486;2022-09-01T12:28:40;1.90;;;1.17;;
12840;SDS011;6487;48.626;12.486;2022-09-01T12:31:11;1.47;;;1.30;;
12840;SDS011;6487;48.626;12.486;2022-09-01T12:33:45;1.63;;;1.20;;
12840;SDS011;6487;48.626;12.486;2022-09-01T12:36:17;3.70;;;1.50;;
12840;SDS011;6487;48.626;12.486;2022-09-01T12:38:52;1.30;;;1.20;;
12840;SDS011;6487;48.626;12.486;2022-09-01T12:41:23;2.73;;;1.43;;
12840;SDS011;6487;48.626;12.486;2022-09-01T12:47:00;2.47;;;1.27;;
12840;SDS011;6487;48.626;12.486;2022-09-01T12:49:36;1.20;;;1.10;;
12840;SDS011;6487;48.626;12.486;2022-09-01T12:52:21;1.87;;;1.57;;
12840;SDS011;6487;48.626;12.486;2022-09-01T12:55:06;1.30;;;1.20;;
12840;SDS011;6487;48.626;12.486;2022-09-01T12:58:01;2.87;;;2.30;;
12840;SDS011;6487;48.626;12.486;2022-09-01T13:00:31;1.80;;;1.53;;
12840;SDS011;6487;48.626;12.486;2022-09-01T13:03:06;2.47;;;1.40;;
12840;SDS011;6487;48.626;12.486;2022-09-01T13:05:40;2.67;;;1.37;;
12840;SDS011;6487;48.626;12.486;2022-09-01T13:08:10;1.90;;;1.40;;
12840;SDS011;6487;48.626;12.486;2022-09-01T13:10:43;3.37;;;1.20;;
12840;SDS011;6487;48.626;12.486;2022-09-01T13:13:14;1.50;;;1.20;;
12840;SDS011;6487;48.626;12.486;2022-09-01T13:15:44;1.43;;;1.33;;
12840;SDS011;6487;48.626;12.486;2022-09-01T13:18:15;2.50;;;1.50;;
12840;SDS011;6487;48.626;12.486;2022-09-01T13:20:44;1.27;;;1.17;;
12840;SDS011;6487;48.626;12.486;2022-09-01T13:23:13;2.30;;;1.40;;
12840;SDS011;6487;48.626;12.486;2022-09-01T13:25:44;2.27;;;1.33;;
12840;SDS011;6487;48.626;12.486;2022-09-01T13:28:13;1.33;;;1.20;;
12840;SDS011;6487;48.626;12.486;2022-09-01T13:30:44;1.90;;;1.40;;
12840;SDS011;6487;48.626;12.486;2022-09-01T13:33:39;1.80;;;1.10;;
12840;SDS011;6487;48.626;12.486;2022-09-01T13:36:27;1.50;;;1.40;;
12840;SDS011;6487;48.626;12.486;2022-09-01T13:39:16;1.10;;;1.03;;
12840;SDS011;6487;48.626;12.486;2022-09-01T13:41:47;2.33;;;1.60;;
12840;SDS011;6487;48.626;12.486;2022-09-01T13:44:15;1.83;;;1.13;;
12840;SDS011;6487;48.626;12.486;2022-09-01T13:46:44;2.80;;;1.50;;
12840;SDS011;6487;48.626;12.486;2022-09-01T13:49:33;2.53;;;1.30;;
12840;SDS011;6487;48.626;12.486;2022-09-01T13:52:21;1.33;;;1.20;;
12840;SDS011;6487;48.626;12.486;2022-09-01T13:54:49;2.97;;;1.50;;
12840;SDS011;6487;48.626;12.486;2022-09-01T13:57:19;1.93;;;1.60;;
12840;SDS011;6487;48.626;12.486;2022-09-01T13:59:48;2.17;;;1.47;;
12840;SDS011;6487;48.626;12.486;2022-09-01T14:02:17;1.63;;;1.40;;
12840;SDS011;6487;48.626;12.486;2022-09-01T14:04:45;1.43;;;1.33;;
12840;SDS011;6487;48.626;12.486;2022-09-01T14:07:14;1.30;;;1.20;;
12840;SDS011;6487;48.626;12.486;2022-09-01T14:09:44;2.33;;;1.67;;
12840;SDS011;6487;48.626;12.486;2022-09-01T14:12:12;3.30;;;1.50;;
12840;SDS011;6487;48.626;12.486;2022-09-01T14:14:42;3.33;;;1.73;;
12840;SDS011;6487;48.626;12.486;2022-09-01T14:17:30;1.83;;;1.60;;
12840;SDS011;6487;48.626;12.486;2022-09-01T14:19:59;2.53;;;1.53;;
12840;SDS011;6487;48.626;12.486;2022-09-01T14:22:27;5.00;;;1.57;;
12840;SDS011;6487;48.626;12.486;2022-09-01T14:25:01;2.10;;;1.43;;
12840;SDS011;6487;48.626;12.486;2022-09-01T14:27:30;1.53;;;1.43;;
12840;SDS011;6487;48.626;12.486;2022-09-01T14:30:00;1.57;;;1.30;;
12840;SDS011;6487;48.626;12.486;2022-09-01T14:32:29;2.87;;;1.30;;
12840;SDS011;6487;48.626;12.486;2022-09-01T14:34:57;1.13;;;1.03;;
12840;SDS011;6487;48.626;12.486;2022-09-01T14:37:27;2.13;;;1.30;;
12840;SDS011;6487;48.626;12.486;2022-09-01T14:39:56;1.53;;;1.13;;
12840;SDS011;6487;48.626;12.486;2022-09-01T14:42:26;1.30;;;1.20;;
12840;SDS011;6487;48.626;12.486;2022-09-01T14:44:55;3.67;;;1.07;;
12840;SDS011;6487;48.626;12.486;2022-09-01T14:47:25;3.10;;;1.33;;
12840;SDS011;6487;48.626;12.486;2022-09-01T14:49:54;1.40;;;1.27;;
12840;SDS011;6487;48.626;12.486;2022-09-01T14:52:22;1.77;;;1.40;;
12840;SDS011;6487;48.626;12.486;2022-09-01T14:54:50;2.13;;;1.20;;
12840;SDS011;6487;48.626;12.486;2022-09-01T14:57:19;1.40;;;1.30;;
12840;SDS011;6487;48.626;12.486;2022-09-01T15:00:03;3.70;;;1.40;;
12840;SDS011;6487;48.626;12.486;2022-09-01T15:02:39;1.90;;;1.80;;
12840;SDS011;6487;48.626;12.486;2022-09-01T15:05:10;11.27;;;10.07;;
12840;SDS011;6487;48.626;12.486;2022-09-01T15:07:39;46.03;;;41.17;;
12840;SDS011;6487;48.626;12.486;2022-09-01T15:10:09;11.17;;;10.17;;
12840;SDS011;6487;48.626;12.486;2022-09-01T15:12:50;3.40;;;3.13;;
12840;SDS011;6487;48.626;12.486;2022-09-01T15:15:19;2.07;;;1.97;;
12840;SDS011;6487;48.626;12.486;2022-09-01T15:17:50;2.43;;;1.60;;
12840;SDS011;6487;48.626;12.486;2022-09-01T15:20:19;1.50;;;1.40;;
12840;SDS011;6487;48.626;12.486;2022-09-01T15:23:06;4.07;;;1.90;;
12840;SDS011;6487;48.626;12.486;2022-09-01T15:25:35;2.80;;;2.10;;
12840;SDS011;6487;48.626;12.486;2022-09-01T15:28:03;1.60;;;1.50;;
12840;SDS011;6487;48.626;12.486;2022-09-01T15:30:32;1.40;;;1.30;;
12840;SDS011;6487;48.626;12.486;2022-09-01T15:33:03;2.80;;;1.70;;
12840;SDS011;6487;48.626;12.486;2022-09-01T15:35:36;2.80;;;1.80;;
12840;SDS011;6487;48.626;12.486;2022-09-01T15:38:04;1.63;;;1.53;;
12840;SDS011;6487;48.626;12.486;2022-09-01T15:40:33;8.03;;;2.90;;
12840;SDS011;6487;48.626;12.486;2022-09-01T15:43:05;4.53;;;2.20;;